Terminal Aerodrome Forecast
Issued by NWS

Home | Current Version | Previous Version | Text Only | Print | Product List | Glossary On
Versions: 1 2 3 4 5 6 7 8 9 10 11 12 13 14 15 16 17 18 19 20 21 22 23
734
FTUS43 KAPX 200241 AAC
TAFPLN
TAF AMD
KPLN 200241Z 2003/2024 10009G18KT 4SM -RA BR OVC005
     FM200500 08012G22KT 3SM -FZRA BR OVC005
     FM201400 11010G20KT 1 1/2SM -FZRA BR OVC007
     FM201600 11008KT 1SM -FZRA BR OVC010 WS020/20030KT
     FM202000 20005KT 3/4SM -RA BR OVC008 WS020/20030KT
     FM202300 25006KT 3SM -RA BR OVC005=

USA.gov is the U.S. government's official web portal to all federal, state and local government web resources and services.